Blackville, Canada
Current Conditions -  °F | °C
As of 10:00 PM on Monday 22 Dec 2014 (Local Time) from CZBF Reporting Station
Light Snow Light Snow  
Wind Chill: 17°   Ceiling: 2500
Heat Index: 23°   Visibility: 12mi
Dew Point: 21°   Wind: 5mph
Humidity: 93%   Direction: 200°SSW
Pressure: 30.45"   Gusts: NA
Location:  46.73°N, 65.83°W
Report Text: CZBF 230200Z 20004KT 12SM -SN OVC025 M05/M06 A3045 RMK SC8 SLP317
Loading
Personal Weather Stations






























Interactive Weather Map New forecast layout! Learn more

10-Day Weather Forecast

Advertisements
Track Severe Weather on mobile